Utica, Missouri
Current Conditions -  °F | °C
As of 4:55 PM on Monday 24 Nov 2014 (Local Time) from KGPH Reporting Station
Overcast Overcast  
Wind Chill: 29°   Ceiling: 4300
Heat Index: 36°   Visibility: 10mi
Dew Point: 25°   Wind: 8mph
Humidity: 65%   Direction: 320°NW
Pressure: 29.9"   Gusts: NA
Location:  39.74°N, 93.63°W
Report Text: KGPH 242255Z AUTO 32007KT 10SM OVC043 02/M04 A2990 RMK AO2
Loading
Personal Weather Stations






























Interactive Weather Map New forecast layout! Learn more

10-Day Weather Forecast

Advertisements
Track Severe Weather on mobile